sensor_id;sensor_type;location;lat;lon;timestamp;P1;durP1;ratioP1;P2;durP2;ratioP2
8279;SDS011;8335;42.646;23.380;2022-10-16T00:01:32;21.87;;;14.77;;
8279;SDS011;8335;42.646;23.380;2022-10-16T00:03:59;21.30;;;14.17;;
8279;SDS011;8335;42.646;23.380;2022-10-16T00:06:27;22.73;;;13.37;;
8279;SDS011;8335;42.646;23.380;2022-10-16T00:08:55;18.47;;;12.57;;
8279;SDS011;8335;42.646;23.380;2022-10-16T00:11:24;23.20;;;14.17;;
8279;SDS011;8335;42.646;23.380;2022-10-16T00:13:54;20.47;;;14.70;;
8279;SDS011;8335;42.646;23.380;2022-10-16T00:16:22;20.53;;;13.87;;
8279;SDS011;8335;42.646;23.380;2022-10-16T00:18:49;20.83;;;13.97;;
8279;SDS011;8335;42.646;23.380;2022-10-16T00:21:16;25.50;;;14.40;;
8279;SDS011;8335;42.646;23.380;2022-10-16T00:23:44;20.53;;;13.17;;
8279;SDS011;8335;42.646;23.380;2022-10-16T00:26:16;22.20;;;14.73;;
8279;SDS011;8335;42.646;23.380;2022-10-16T00:28:46;22.27;;;13.77;;
8279;SDS011;8335;42.646;23.380;2022-10-16T00:31:13;19.73;;;12.83;;
8279;SDS011;8335;42.646;23.380;2022-10-16T00:33:40;22.83;;;13.43;;
8279;SDS011;8335;42.646;23.380;2022-10-16T00:36:09;21.93;;;13.00;;
8279;SDS011;8335;42.646;23.380;2022-10-16T00:38:37;18.60;;;13.17;;
8279;SDS011;8335;42.646;23.380;2022-10-16T00:41:04;22.50;;;13.57;;
8279;SDS011;8335;42.646;23.380;2022-10-16T00:43:33;19.03;;;12.87;;
8279;SDS011;8335;42.646;23.380;2022-10-16T00:46:04;19.40;;;13.17;;
8279;SDS011;8335;42.646;23.380;2022-10-16T00:48:36;18.77;;;13.07;;
8279;SDS011;8335;42.646;23.380;2022-10-16T00:51:03;21.63;;;12.93;;
8279;SDS011;8335;42.646;23.380;2022-10-16T00:53:32;22.97;;;12.73;;
8279;SDS011;8335;42.646;23.380;2022-10-16T00:56:00;23.10;;;13.17;;
8279;SDS011;8335;42.646;23.380;2022-10-16T00:58:27;25.97;;;13.37;;
8279;SDS011;8335;42.646;23.380;2022-10-16T01:00:54;21.70;;;13.13;;
8279;SDS011;8335;42.646;23.380;2022-10-16T01:03:26;22.17;;;12.53;;
8279;SDS011;8335;42.646;23.380;2022-10-16T01:05:59;21.80;;;12.93;;
8279;SDS011;8335;42.646;23.380;2022-10-16T01:08:43;16.83;;;12.60;;
8279;SDS011;8335;42.646;23.380;2022-10-16T01:11:16;22.63;;;13.20;;
8279;SDS011;8335;42.646;23.380;2022-10-16T01:13:50;17.50;;;10.57;;
8279;SDS011;8335;42.646;23.380;2022-10-16T01:16:23;15.07;;;10.90;;
8279;SDS011;8335;42.646;23.380;2022-10-16T01:19:00;17.03;;;11.30;;
8279;SDS011;8335;42.646;23.380;2022-10-16T01:21:36;11.93;;;9.30;;
8279;SDS011;8335;42.646;23.380;2022-10-16T01:24:07;15.40;;;8.17;;
8279;SDS011;8335;42.646;23.380;2022-10-16T01:26:43;9.23;;;7.47;;
8279;SDS011;8335;42.646;23.380;2022-10-16T01:29:23;7.63;;;6.27;;
8279;SDS011;8335;42.646;23.380;2022-10-16T01:31:55;12.37;;;6.50;;
8279;SDS011;8335;42.646;23.380;2022-10-16T01:34:28;8.87;;;6.73;;
8279;SDS011;8335;42.646;23.380;2022-10-16T01:37:02;8.30;;;6.60;;
8279;SDS011;8335;42.646;23.380;2022-10-16T01:39:34;8.13;;;6.40;;
8279;SDS011;8335;42.646;23.380;2022-10-16T01:42:06;8.10;;;6.27;;
8279;SDS011;8335;42.646;23.380;2022-10-16T01:44:38;9.77;;;6.37;;
8279;SDS011;8335;42.646;23.380;2022-10-16T01:47:07;11.77;;;6.53;;
8279;SDS011;8335;42.646;23.380;2022-10-16T01:49:37;7.87;;;5.83;;
8279;SDS011;8335;42.646;23.380;2022-10-16T01:52:06;8.93;;;6.30;;
8279;SDS011;8335;42.646;23.380;2022-10-16T01:54:37;10.03;;;6.20;;
8279;SDS011;8335;42.646;23.380;2022-10-16T01:57:08;9.00;;;6.00;;
8279;SDS011;8335;42.646;23.380;2022-10-16T01:59:39;9.00;;;6.40;;
8279;SDS011;8335;42.646;23.380;2022-10-16T02:02:09;8.20;;;6.10;;
8279;SDS011;8335;42.646;23.380;2022-10-16T02:04:38;10.90;;;6.20;;
8279;SDS011;8335;42.646;23.380;2022-10-16T02:07:08;10.77;;;6.43;;
8279;SDS011;8335;42.646;23.380;2022-10-16T02:09:36;7.27;;;5.83;;
8279;SDS011;8335;42.646;23.380;2022-10-16T02:12:06;9.80;;;6.10;;
8279;SDS011;8335;42.646;23.380;2022-10-16T02:14:40;7.10;;;6.40;;
8279;SDS011;8335;42.646;23.380;2022-10-16T02:17:11;10.93;;;6.50;;
8279;SDS011;8335;42.646;23.380;2022-10-16T02:19:39;7.87;;;5.93;;
8279;SDS011;8335;42.646;23.380;2022-10-16T02:22:08;7.97;;;6.47;;
8279;SDS011;8335;42.646;23.380;2022-10-16T02:24:39;8.70;;;6.40;;
8279;SDS011;8335;42.646;23.380;2022-10-16T02:27:13;8.43;;;6.33;;
8279;SDS011;8335;42.646;23.380;2022-10-16T02:29:47;10.43;;;6.40;;
8279;SDS011;8335;42.646;23.380;2022-10-16T02:32:23;8.80;;;7.03;;
8279;SDS011;8335;42.646;23.380;2022-10-16T02:34:53;10.87;;;6.60;;
8279;SDS011;8335;42.646;23.380;2022-10-16T02:37:21;8.77;;;6.47;;
8279;SDS011;8335;42.646;23.380;2022-10-16T02:39:48;7.77;;;6.80;;
8279;SDS011;8335;42.646;23.380;2022-10-16T02:42:15;10.27;;;6.90;;
8279;SDS011;8335;42.646;23.380;2022-10-16T02:44:43;8.50;;;6.43;;
8279;SDS011;8335;42.646;23.380;2022-10-16T02:47:12;9.53;;;6.87;;
8279;SDS011;8335;42.646;23.380;2022-10-16T02:49:38;10.20;;;6.33;;
8279;SDS011;8335;42.646;23.380;2022-10-16T02:52:05;11.20;;;7.00;;
8279;SDS011;8335;42.646;23.380;2022-10-16T02:54:32;9.00;;;7.40;;
8279;SDS011;8335;42.646;23.380;2022-10-16T02:56:58;9.50;;;7.27;;
8279;SDS011;8335;42.646;23.380;2022-10-16T02:59:25;9.67;;;6.83;;
8279;SDS011;8335;42.646;23.380;2022-10-16T03:01:52;9.17;;;7.20;;
8279;SDS011;8335;42.646;23.380;2022-10-16T03:04:20;11.43;;;7.73;;
8279;SDS011;8335;42.646;23.380;2022-10-16T03:06:46;9.77;;;7.13;;
8279;SDS011;8335;42.646;23.380;2022-10-16T03:09:13;13.93;;;8.17;;
8279;SDS011;8335;42.646;23.380;2022-10-16T03:11:40;26.43;;;8.60;;
8279;SDS011;8335;42.646;23.380;2022-10-16T03:14:06;12.17;;;8.10;;
8279;SDS011;8335;42.646;23.380;2022-10-16T03:16:33;10.80;;;7.90;;
8279;SDS011;8335;42.646;23.380;2022-10-16T03:19:00;14.43;;;9.77;;
8279;SDS011;8335;42.646;23.380;2022-10-16T03:21:28;13.70;;;8.70;;
8279;SDS011;8335;42.646;23.380;2022-10-16T03:23:54;9.80;;;8.00;;
8279;SDS011;8335;42.646;23.380;2022-10-16T03:26:21;15.90;;;9.67;;
8279;SDS011;8335;42.646;23.380;2022-10-16T03:28:48;10.17;;;8.23;;
8279;SDS011;8335;42.646;23.380;2022-10-16T03:31:14;11.77;;;8.07;;
8279;SDS011;8335;42.646;23.380;2022-10-16T03:33:41;11.53;;;8.57;;
8279;SDS011;8335;42.646;23.380;2022-10-16T03:36:08;14.43;;;9.20;;
8279;SDS011;8335;42.646;23.380;2022-10-16T03:38:36;13.07;;;8.33;;
8279;SDS011;8335;42.646;23.380;2022-10-16T03:41:03;11.77;;;8.53;;
8279;SDS011;8335;42.646;23.380;2022-10-16T03:43:30;11.80;;;8.37;;
8279;SDS011;8335;42.646;23.380;2022-10-16T03:45:56;11.43;;;8.47;;
8279;SDS011;8335;42.646;23.380;2022-10-16T03:48:23;12.67;;;8.83;;
8279;SDS011;8335;42.646;23.380;2022-10-16T03:50:50;11.73;;;8.13;;
8279;SDS011;8335;42.646;23.380;2022-10-16T03:53:17;11.33;;;8.53;;
8279;SDS011;8335;42.646;23.380;2022-10-16T03:55:45;10.77;;;7.73;;
8279;SDS011;8335;42.646;23.380;2022-10-16T03:58:11;13.33;;;8.00;;
8279;SDS011;8335;42.646;23.380;2022-10-16T04:00:39;13.17;;;8.33;;
8279;SDS011;8335;42.646;23.380;2022-10-16T04:03:07;12.33;;;8.67;;
8279;SDS011;8335;42.646;23.380;2022-10-16T04:05:34;12.47;;;8.20;;
8279;SDS011;8335;42.646;23.380;2022-10-16T04:08:01;14.10;;;8.63;;
8279;SDS011;8335;42.646;23.380;2022-10-16T04:10:28;11.70;;;9.20;;
8279;SDS011;8335;42.646;23.380;2022-10-16T04:12:56;13.87;;;9.27;;
8279;SDS011;8335;42.646;23.380;2022-10-16T04:15:23;13.67;;;9.40;;
8279;SDS011;8335;42.646;23.380;2022-10-16T04:17:50;12.40;;;8.97;;
8279;SDS011;8335;42.646;23.380;2022-10-16T04:20:17;14.27;;;9.53;;
8279;SDS011;8335;42.646;23.380;2022-10-16T04:22:44;17.90;;;9.63;;
8279;SDS011;8335;42.646;23.380;2022-10-16T04:25:11;14.80;;;8.97;;
8279;SDS011;8335;42.646;23.380;2022-10-16T04:27:38;13.63;;;9.37;;
8279;SDS011;8335;42.646;23.380;2022-10-16T04:30:06;12.77;;;9.83;;
8279;SDS011;8335;42.646;23.380;2022-10-16T04:32:34;10.63;;;8.93;;
8279;SDS011;8335;42.646;23.380;2022-10-16T04:35:00;13.33;;;9.60;;
8279;SDS011;8335;42.646;23.380;2022-10-16T04:37:27;12.97;;;8.73;;
8279;SDS011;8335;42.646;23.380;2022-10-16T04:39:54;13.07;;;9.87;;
8279;SDS011;8335;42.646;23.380;2022-10-16T04:42:21;13.67;;;10.07;;
8279;SDS011;8335;42.646;23.380;2022-10-16T04:44:48;13.53;;;9.73;;
8279;SDS011;8335;42.646;23.380;2022-10-16T04:47:16;12.60;;;8.83;;
8279;SDS011;8335;42.646;23.380;2022-10-16T04:49:42;14.00;;;9.90;;
8279;SDS011;8335;42.646;23.380;2022-10-16T04:52:09;14.43;;;9.00;;
8279;SDS011;8335;42.646;23.380;2022-10-16T04:54:36;14.33;;;9.07;;
8279;SDS011;8335;42.646;23.380;2022-10-16T04:57:02;12.43;;;8.67;;
8279;SDS011;8335;42.646;23.380;2022-10-16T04:59:29;12.43;;;9.40;;
8279;SDS011;8335;42.646;23.380;2022-10-16T05:01:56;15.97;;;9.30;;
8279;SDS011;8335;42.646;23.380;2022-10-16T05:04:24;12.27;;;8.50;;
8279;SDS011;8335;42.646;23.380;2022-10-16T05:06:51;13.80;;;9.33;;
8279;SDS011;8335;42.646;23.380;2022-10-16T05:09:18;11.53;;;8.10;;
8279;SDS011;8335;42.646;23.380;2022-10-16T05:11:44;11.13;;;8.03;;
8279;SDS011;8335;42.646;23.380;2022-10-16T05:14:11;11.60;;;7.90;;
8279;SDS011;8335;42.646;23.380;2022-10-16T05:16:38;13.27;;;8.27;;
8279;SDS011;8335;42.646;23.380;2022-10-16T05:19:04;13.70;;;8.33;;
8279;SDS011;8335;42.646;23.380;2022-10-16T05:21:32;11.27;;;8.60;;
8279;SDS011;8335;42.646;23.380;2022-10-16T05:23:59;12.53;;;8.40;;
8279;SDS011;8335;42.646;23.380;2022-10-16T05:26:26;10.63;;;7.90;;
8279;SDS011;8335;42.646;23.380;2022-10-16T05:28:52;9.60;;;8.10;;
8279;SDS011;8335;42.646;23.380;2022-10-16T05:31:19;12.00;;;8.07;;
8279;SDS011;8335;42.646;23.380;2022-10-16T05:33:46;11.73;;;8.27;;
8279;SDS011;8335;42.646;23.380;2022-10-16T05:36:12;10.00;;;7.67;;
8279;SDS011;8335;42.646;23.380;2022-10-16T05:38:40;10.73;;;8.03;;
8279;SDS011;8335;42.646;23.380;2022-10-16T05:41:07;17.00;;;8.53;;
8279;SDS011;8335;42.646;23.380;2022-10-16T05:43:34;11.33;;;7.90;;
8279;SDS011;8335;42.646;23.380;2022-10-16T05:46:01;9.53;;;6.90;;
8279;SDS011;8335;42.646;23.380;2022-10-16T05:48:30;10.37;;;6.57;;
8279;SDS011;8335;42.646;23.380;2022-10-16T05:50:57;9.97;;;6.47;;
8279;SDS011;8335;42.646;23.380;2022-10-16T05:53:25;9.00;;;6.37;;
8279;SDS011;8335;42.646;23.380;2022-10-16T05:55:54;20.40;;;8.30;;
8279;SDS011;8335;42.646;23.380;2022-10-16T05:58:22;7.00;;;5.90;;
8279;SDS011;8335;42.646;23.380;2022-10-16T06:00:55;11.63;;;5.90;;
8279;SDS011;8335;42.646;23.380;2022-10-16T06:03:23;5.90;;;5.30;;
8279;SDS011;8335;42.646;23.380;2022-10-16T06:05:50;7.63;;;5.73;;
8279;SDS011;8335;42.646;23.380;2022-10-16T06:08:17;6.63;;;5.63;;
8279;SDS011;8335;42.646;23.380;2022-10-16T06:10:44;7.75;;;5.50;;
8279;SDS011;8335;42.646;23.380;2022-10-16T06:13:13;7.50;;;5.30;;
8279;SDS011;8335;42.646;23.380;2022-10-16T06:15:40;5.32;;;4.82;;
8279;SDS011;8335;42.646;23.380;2022-10-16T06:18:09;5.82;;;5.18;;
8279;SDS011;8335;42.646;23.380;2022-10-16T06:20:36;7.57;;;5.15;;
8279;SDS011;8335;42.646;23.380;2022-10-16T06:23:03;5.95;;;4.93;;
8279;SDS011;8335;42.646;23.380;2022-10-16T06:25:30;7.70;;;4.82;;
8279;SDS011;8335;42.646;23.380;2022-10-16T06:27:57;7.68;;;4.53;;
8279;SDS011;8335;42.646;23.380;2022-10-16T06:30:25;6.38;;;4.88;;
8279;SDS011;8335;42.646;23.380;2022-10-16T06:32:51;6.30;;;4.80;;
8279;SDS011;8335;42.646;23.380;2022-10-16T06:35:18;5.55;;;4.82;;
8279;SDS011;8335;42.646;23.380;2022-10-16T06:37:45;9.43;;;5.05;;
8279;SDS011;8335;42.646;23.380;2022-10-16T06:40:11;5.25;;;4.75;;
8279;SDS011;8335;42.646;23.380;2022-10-16T06:42:39;6.65;;;4.47;;
8279;SDS011;8335;42.646;23.380;2022-10-16T06:45:06;6.88;;;4.85;;
8279;SDS011;8335;42.646;23.380;2022-10-16T06:47:35;5.30;;;4.80;;
8279;SDS011;8335;42.646;23.380;2022-10-16T06:50:02;6.55;;;4.60;;
8279;SDS011;8335;42.646;23.380;2022-10-16T06:52:31;5.45;;;4.70;;
8279;SDS011;8335;42.646;23.380;2022-10-16T06:54:58;8.45;;;4.72;;
8279;SDS011;8335;42.646;23.380;2022-10-16T06:57:25;6.75;;;5.70;;
8279;SDS011;8335;42.646;23.380;2022-10-16T06:59:52;7.00;;;6.00;;
8279;SDS011;8335;42.646;23.380;2022-10-16T07:02:19;7.93;;;5.93;;
8279;SDS011;8335;42.646;23.380;2022-10-16T07:04:47;10.52;;;6.65;;
8279;SDS011;8335;42.646;23.380;2022-10-16T07:07:13;8.43;;;6.68;;
8279;SDS011;8335;42.646;23.380;2022-10-16T07:09:40;8.20;;;6.32;;
8279;SDS011;8335;42.646;23.380;2022-10-16T07:12:07;9.38;;;6.95;;
8279;SDS011;8335;42.646;23.380;2022-10-16T07:14:33;10.27;;;7.00;;
8279;SDS011;8335;42.646;23.380;2022-10-16T07:17:00;10.15;;;6.00;;
8279;SDS011;8335;42.646;23.380;2022-10-16T07:19:27;9.95;;;6.60;;
8279;SDS011;8335;42.646;23.380;2022-10-16T07:21:55;8.73;;;6.30;;
8279;SDS011;8335;42.646;23.380;2022-10-16T07:24:22;10.82;;;6.65;;
8279;SDS011;8335;42.646;23.380;2022-10-16T07:26:49;9.00;;;6.28;;
8279;SDS011;8335;42.646;23.380;2022-10-16T07:29:16;11.73;;;7.50;;
8279;SDS011;8335;42.646;23.380;2022-10-16T07:31:44;11.40;;;7.10;;
8279;SDS011;8335;42.646;23.380;2022-10-16T07:34:12;13.35;;;7.38;;
8279;SDS011;8335;42.646;23.380;2022-10-16T07:36:39;16.58;;;6.95;;
8279;SDS011;8335;42.646;23.380;2022-10-16T07:39:07;14.00;;;6.93;;
8279;SDS011;8335;42.646;23.380;2022-10-16T07:41:34;12.60;;;6.95;;
8279;SDS011;8335;42.646;23.380;2022-10-16T07:44:02;14.27;;;8.10;;
8279;SDS011;8335;42.646;23.380;2022-10-16T07:46:29;13.20;;;7.10;;
8279;SDS011;8335;42.646;23.380;2022-10-16T07:48:58;8.95;;;6.30;;
8279;SDS011;8335;42.646;23.380;2022-10-16T07:51:25;14.60;;;8.10;;
8279;SDS011;8335;42.646;23.380;2022-10-16T07:53:52;13.15;;;7.25;;
8279;SDS011;8335;42.646;23.380;2022-10-16T07:56:21;10.10;;;6.70;;
8279;SDS011;8335;42.646;23.380;2022-10-16T07:58:48;9.30;;;6.60;;
8279;SDS011;8335;42.646;23.380;2022-10-16T08:01:16;12.80;;;6.50;;
8279;SDS011;8335;42.646;23.380;2022-10-16T08:03:43;8.50;;;6.38;;
8279;SDS011;8335;42.646;23.380;2022-10-16T08:06:11;9.27;;;6.22;;
8279;SDS011;8335;42.646;23.380;2022-10-16T08:08:38;7.90;;;5.75;;
8279;SDS011;8335;42.646;23.380;2022-10-16T08:11:05;7.97;;;6.00;;
8279;SDS011;8335;42.646;23.380;2022-10-16T08:13:33;10.45;;;6.20;;
8279;SDS011;8335;42.646;23.380;2022-10-16T08:16:00;8.43;;;5.53;;
8279;SDS011;8335;42.646;23.380;2022-10-16T08:18:28;6.68;;;5.30;;
8279;SDS011;8335;42.646;23.380;2022-10-16T08:20:55;9.55;;;5.65;;
8279;SDS011;8335;42.646;23.380;2022-10-16T08:23:23;10.90;;;5.63;;
8279;SDS011;8335;42.646;23.380;2022-10-16T08:25:51;8.75;;;5.38;;
8279;SDS011;8335;42.646;23.380;2022-10-16T08:28:18;9.80;;;4.63;;
8279;SDS011;8335;42.646;23.380;2022-10-16T08:30:46;10.10;;;5.40;;
8279;SDS011;8335;42.646;23.380;2022-10-16T08:33:13;6.88;;;5.10;;
8279;SDS011;8335;42.646;23.380;2022-10-16T08:35:40;7.88;;;5.70;;
8279;SDS011;8335;42.646;23.380;2022-10-16T08:38:07;9.05;;;4.97;;
8279;SDS011;8335;42.646;23.380;2022-10-16T08:40:34;7.40;;;4.60;;
8279;SDS011;8335;42.646;23.380;2022-10-16T08:43:10;6.93;;;4.50;;
8279;SDS011;8335;42.646;23.380;2022-10-16T08:46:02;6.75;;;4.38;;
8279;SDS011;8335;42.646;23.380;2022-10-16T08:48:40;7.25;;;3.83;;
8279;SDS011;8335;42.646;23.380;2022-10-16T08:51:14;6.15;;;4.18;;
8279;SDS011;8335;42.646;23.380;2022-10-16T08:53:47;5.07;;;3.72;;
8279;SDS011;8335;42.646;23.380;2022-10-16T08:56:19;3.97;;;3.55;;
8279;SDS011;8335;42.646;23.380;2022-10-16T08:58:46;6.18;;;3.70;;
8279;SDS011;8335;42.646;23.380;2022-10-16T09:01:15;6.20;;;3.40;;
8279;SDS011;8335;42.646;23.380;2022-10-16T09:03:51;6.38;;;4.43;;
8279;SDS011;8335;42.646;23.380;2022-10-16T09:06:31;5.20;;;4.25;;
8279;SDS011;8335;42.646;23.380;2022-10-16T09:09:10;5.43;;;4.05;;
8279;SDS011;8335;42.646;23.380;2022-10-16T09:11:57;8.43;;;4.40;;
8279;SDS011;8335;42.646;23.380;2022-10-16T09:14:40;6.63;;;4.38;;
8279;SDS011;8335;42.646;23.380;2022-10-16T09:17:21;4.65;;;3.40;;
8279;SDS011;8335;42.646;23.380;2022-10-16T09:20:00;6.57;;;3.58;;
8279;SDS011;8335;42.646;23.380;2022-10-16T09:22:40;4.57;;;3.53;;
8279;SDS011;8335;42.646;23.380;2022-10-16T09:25:10;6.60;;;4.18;;
8279;SDS011;8335;42.646;23.380;2022-10-16T09:27:38;5.40;;;4.03;;
8279;SDS011;8335;42.646;23.380;2022-10-16T09:30:10;7.18;;;4.15;;
8279;SDS011;8335;42.646;23.380;2022-10-16T09:32:39;5.70;;;4.38;;
8279;SDS011;8335;42.646;23.380;2022-10-16T09:35:10;5.30;;;3.70;;
8279;SDS011;8335;42.646;23.380;2022-10-16T09:37:40;5.47;;;3.90;;
8279;SDS011;8335;42.646;23.380;2022-10-16T09:40:11;7.55;;;3.45;;
8279;SDS011;8335;42.646;23.380;2022-10-16T09:42:39;6.25;;;3.75;;
8279;SDS011;8335;42.646;23.380;2022-10-16T09:45:19;4.82;;;3.60;;
8279;SDS011;8335;42.646;23.380;2022-10-16T09:47:48;4.03;;;3.47;;
8279;SDS011;8335;42.646;23.380;2022-10-16T09:50:20;4.00;;;3.38;;
8279;SDS011;8335;42.646;23.380;2022-10-16T09:52:50;5.35;;;3.90;;
8279;SDS011;8335;42.646;23.380;2022-10-16T09:55:17;4.40;;;3.55;;
8279;SDS011;8335;42.646;23.380;2022-10-16T09:57:48;5.35;;;4.00;;
8279;SDS011;8335;42.646;23.380;2022-10-16T10:00:15;5.90;;;3.70;;
8279;SDS011;8335;42.646;23.380;2022-10-16T10:02:42;5.05;;;3.67;;
8279;SDS011;8335;42.646;23.380;2022-10-16T10:05:18;4.82;;;3.60;;
8279;SDS011;8335;42.646;23.380;2022-10-16T10:07:52;4.57;;;3.83;;
8279;SDS011;8335;42.646;23.380;2022-10-16T10:10:23;7.82;;;3.97;;
8279;SDS011;8335;42.646;23.380;2022-10-16T10:12:51;6.13;;;3.95;;
8279;SDS011;8335;42.646;23.380;2022-10-16T10:15:18;6.88;;;4.18;;
8279;SDS011;8335;42.646;23.380;2022-10-16T10:17:47;6.18;;;4.40;;
8279;SDS011;8335;42.646;23.380;2022-10-16T10:20:22;5.55;;;4.40;;
8279;SDS011;8335;42.646;23.380;2022-10-16T10:22:52;5.15;;;3.97;;
8279;SDS011;8335;42.646;23.380;2022-10-16T10:25:31;5.05;;;4.10;;
8279;SDS011;8335;42.646;23.380;2022-10-16T10:28:16;7.53;;;3.80;;
8279;SDS011;8335;42.646;23.380;2022-10-16T10:30:54;6.07;;;3.83;;
8279;SDS011;8335;42.646;23.380;2022-10-16T10:33:27;6.78;;;4.30;;
8279;SDS011;8335;42.646;23.380;2022-10-16T10:36:05;7.05;;;3.80;;
8279;SDS011;8335;42.646;23.380;2022-10-16T10:38:45;6.55;;;3.88;;
8279;SDS011;8335;42.646;23.380;2022-10-16T10:41:24;5.68;;;4.10;;
8279;SDS011;8335;42.646;23.380;2022-10-16T10:44:11;6.72;;;4.10;;
8279;SDS011;8335;42.646;23.380;2022-10-16T10:46:49;4.32;;;3.75;;
8279;SDS011;8335;42.646;23.380;2022-10-16T10:49:25;4.18;;;3.40;;
8279;SDS011;8335;42.646;23.380;2022-10-16T10:52:08;6.00;;;3.75;;
8279;SDS011;8335;42.646;23.380;2022-10-16T10:54:49;4.22;;;3.63;;
8279;SDS011;8335;42.646;23.380;2022-10-16T10:57:23;5.20;;;3.30;;
8279;SDS011;8335;42.646;23.380;2022-10-16T10:59:58;6.28;;;3.08;;
8279;SDS011;8335;42.646;23.380;2022-10-16T11:02:46;5.70;;;3.05;;
8279;SDS011;8335;42.646;23.380;2022-10-16T11:05:35;3.13;;;2.75;;
8279;SDS011;8335;42.646;23.380;2022-10-16T11:08:11;5.43;;;3.47;;
8279;SDS011;8335;42.646;23.380;2022-10-16T11:10:47;3.38;;;2.40;;
8279;SDS011;8335;42.646;23.380;2022-10-16T11:13:23;3.58;;;2.72;;
8279;SDS011;8335;42.646;23.380;2022-10-16T11:15:57;4.35;;;2.75;;
8279;SDS011;8335;42.646;23.380;2022-10-16T11:18:30;2.60;;;2.30;;
8279;SDS011;8335;42.646;23.380;2022-10-16T11:21:07;4.80;;;2.58;;
8279;SDS011;8335;42.646;23.380;2022-10-16T11:23:38;5.82;;;3.30;;
8279;SDS011;8335;42.646;23.380;2022-10-16T11:26:11;5.20;;;3.10;;
8279;SDS011;8335;42.646;23.380;2022-10-16T11:28:44;5.10;;;3.10;;
8279;SDS011;8335;42.646;23.380;2022-10-16T11:31:13;3.95;;;2.97;;
8279;SDS011;8335;42.646;23.380;2022-10-16T11:33:45;3.90;;;2.65;;
8279;SDS011;8335;42.646;23.380;2022-10-16T11:36:18;5.15;;;3.17;;
8279;SDS011;8335;42.646;23.380;2022-10-16T11:38:55;5.45;;;3.03;;
8279;SDS011;8335;42.646;23.380;2022-10-16T11:41:27;4.70;;;3.05;;
8279;SDS011;8335;42.646;23.380;2022-10-16T11:46:58;4.85;;;3.13;;
8279;SDS011;8335;42.646;23.380;2022-10-16T11:49:34;6.25;;;2.88;;
8279;SDS011;8335;42.646;23.380;2022-10-16T11:52:06;4.63;;;3.40;;
8279;SDS011;8335;42.646;23.380;2022-10-16T11:54:41;4.28;;;3.30;;
8279;SDS011;8335;42.646;23.380;2022-10-16T11:57:15;4.40;;;3.22;;
8279;SDS011;8335;42.646;23.380;2022-10-16T11:59:47;3.95;;;3.28;;
8279;SDS011;8335;42.646;23.380;2022-10-16T12:02:40;3.97;;;3.00;;
8279;SDS011;8335;42.646;23.380;2022-10-16T12:05:18;3.38;;;2.95;;
8279;SDS011;8335;42.646;23.380;2022-10-16T12:07:51;5.70;;;3.33;;
8279;SDS011;8335;42.646;23.380;2022-10-16T12:10:28;6.80;;;3.70;;
8279;SDS011;8335;42.646;23.380;2022-10-16T12:13:01;4.45;;;3.20;;
8279;SDS011;8335;42.646;23.380;2022-10-16T12:15:30;4.07;;;2.85;;
8279;SDS011;8335;42.646;23.380;2022-10-16T12:17:58;3.85;;;3.00;;
8279;SDS011;8335;42.646;23.380;2022-10-16T12:20:26;4.93;;;2.95;;
8279;SDS011;8335;42.646;23.380;2022-10-16T12:22:57;15.30;;;3.60;;
8279;SDS011;8335;42.646;23.380;2022-10-16T12:25:28;3.50;;;3.00;;
8279;SDS011;8335;42.646;23.380;2022-10-16T12:28:03;4.50;;;2.70;;
8279;SDS011;8335;42.646;23.380;2022-10-16T12:30:32;5.57;;;2.78;;
8279;SDS011;8335;42.646;23.380;2022-10-16T12:33:02;5.40;;;2.72;;
8279;SDS011;8335;42.646;23.380;2022-10-16T12:35:31;3.60;;;2.95;;
8279;SDS011;8335;42.646;23.380;2022-10-16T12:38:07;5.78;;;3.00;;
8279;SDS011;8335;42.646;23.380;2022-10-16T12:40:43;3.78;;;2.83;;
8279;SDS011;8335;42.646;23.380;2022-10-16T12:43:11;4.07;;;3.00;;
8279;SDS011;8335;42.646;23.380;2022-10-16T12:45:58;3.70;;;3.30;;
8279;SDS011;8335;42.646;23.380;2022-10-16T12:48:25;5.22;;;3.17;;
8279;SDS011;8335;42.646;23.380;2022-10-16T12:50:53;4.90;;;3.10;;
8279;SDS011;8335;42.646;23.380;2022-10-16T12:53:20;4.13;;;3.22;;
8279;SDS011;8335;42.646;23.380;2022-10-16T12:55:52;5.40;;;3.25;;
8279;SDS011;8335;42.646;23.380;2022-10-16T12:58:39;4.68;;;3.08;;
8279;SDS011;8335;42.646;23.380;2022-10-16T13:01:20;4.47;;;3.00;;
8279;SDS011;8335;42.646;23.380;2022-10-16T13:04:04;8.02;;;2.83;;
8279;SDS011;8335;42.646;23.380;2022-10-16T13:06:55;10.93;;;3.10;;
8279;SDS011;8335;42.646;23.380;2022-10-16T13:09:31;5.72;;;3.08;;
8279;SDS011;8335;42.646;23.380;2022-10-16T13:12:11;4.65;;;3.20;;
8279;SDS011;8335;42.646;23.380;2022-10-16T13:14:56;6.53;;;3.45;;
8279;SDS011;8335;42.646;23.380;2022-10-16T13:17:42;6.25;;;3.40;;
8279;SDS011;8335;42.646;23.380;2022-10-16T13:20:18;3.92;;;3.10;;
8279;SDS011;8335;42.646;23.380;2022-10-16T13:22:54;3.97;;;3.33;;
8279;SDS011;8335;42.646;23.380;2022-10-16T13:25:28;4.80;;;3.28;;
8279;SDS011;8335;42.646;23.380;2022-10-16T13:28:08;4.63;;;3.75;;
8279;SDS011;8335;42.646;23.380;2022-10-16T13:30:38;5.93;;;3.20;;
8279;SDS011;8335;42.646;23.380;2022-10-16T13:33:12;3.17;;;2.85;;
8279;SDS011;8335;42.646;23.380;2022-10-16T13:35:47;3.47;;;2.85;;
8279;SDS011;8335;42.646;23.380;2022-10-16T13:38:17;3.80;;;2.97;;
8279;SDS011;8335;42.646;23.380;2022-10-16T13:40:48;3.08;;;2.72;;
8279;SDS011;8335;42.646;23.380;2022-10-16T13:43:18;5.35;;;3.00;;
8279;SDS011;8335;42.646;23.380;2022-10-16T13:45:57;4.57;;;3.22;;
8279;SDS011;8335;42.646;23.380;2022-10-16T13:48:25;3.75;;;2.70;;
8279;SDS011;8335;42.646;23.380;2022-10-16T13:50:59;5.57;;;3.05;;
8279;SDS011;8335;42.646;23.380;2022-10-16T13:53:29;6.70;;;3.13;;
8279;SDS011;8335;42.646;23.380;2022-10-16T13:55:57;6.20;;;2.90;;
8279;SDS011;8335;42.646;23.380;2022-10-16T13:58:26;4.47;;;3.03;;
8279;SDS011;8335;42.646;23.380;2022-10-16T14:00:54;3.97;;;2.85;;
8279;SDS011;8335;42.646;23.380;2022-10-16T14:03:23;4.38;;;3.30;;
8279;SDS011;8335;42.646;23.380;2022-10-16T14:05:51;4.70;;;3.45;;
8279;SDS011;8335;42.646;23.380;2022-10-16T14:08:20;3.95;;;3.10;;
8279;SDS011;8335;42.646;23.380;2022-10-16T14:10:48;3.88;;;3.00;;
8279;SDS011;8335;42.646;23.380;2022-10-16T14:13:17;5.68;;;3.30;;
8279;SDS011;8335;42.646;23.380;2022-10-16T14:15:48;5.10;;;2.90;;
8279;SDS011;8335;42.646;23.380;2022-10-16T14:18:18;4.50;;;3.15;;
8279;SDS011;8335;42.646;23.380;2022-10-16T14:20:48;5.40;;;3.20;;
8279;SDS011;8335;42.646;23.380;2022-10-16T14:23:19;4.80;;;3.00;;
8279;SDS011;8335;42.646;23.380;2022-10-16T14:25:51;3.78;;;3.03;;
8279;SDS011;8335;42.646;23.380;2022-10-16T14:28:18;4.68;;;2.70;;
8279;SDS011;8335;42.646;23.380;2022-10-16T14:30:51;5.13;;;3.25;;
8279;SDS011;8335;42.646;23.380;2022-10-16T14:33:21;3.47;;;2.90;;
8279;SDS011;8335;42.646;23.380;2022-10-16T14:36:00;13.27;;;3.10;;
8279;SDS011;8335;42.646;23.380;2022-10-16T14:38:29;6.47;;;3.33;;
8279;SDS011;8335;42.646;23.380;2022-10-16T14:40:57;6.40;;;2.95;;
8279;SDS011;8335;42.646;23.380;2022-10-16T14:43:27;4.80;;;2.80;;
8279;SDS011;8335;42.646;23.380;2022-10-16T14:45:59;4.22;;;3.20;;
8279;SDS011;8335;42.646;23.380;2022-10-16T14:48:29;4.95;;;2.88;;
8279;SDS011;8335;42.646;23.380;2022-10-16T14:50:56;5.38;;;3.50;;
8279;SDS011;8335;42.646;23.380;2022-10-16T14:53:22;6.30;;;2.83;;
8279;SDS011;8335;42.646;23.380;2022-10-16T14:55:49;5.43;;;3.07;;
8279;SDS011;8335;42.646;23.380;2022-10-16T14:58:17;7.00;;;3.27;;
8279;SDS011;8335;42.646;23.380;2022-10-16T15:00:46;4.40;;;3.30;;
8279;SDS011;8335;42.646;23.380;2022-10-16T15:03:15;7.32;;;3.28;;
8279;SDS011;8335;42.646;23.380;2022-10-16T15:05:41;4.27;;;3.23;;
8279;SDS011;8335;42.646;23.380;2022-10-16T15:08:08;4.50;;;2.97;;
8279;SDS011;8335;42.646;23.380;2022-10-16T15:10:38;7.40;;;3.07;;
8279;SDS011;8335;42.646;23.380;2022-10-16T15:13:08;5.17;;;3.27;;
8279;SDS011;8335;42.646;23.380;2022-10-16T15:15:37;5.03;;;3.00;;
8279;SDS011;8335;42.646;23.380;2022-10-16T15:18:06;5.27;;;3.60;;